Hilltop, Minnesota
Current Conditions -  °F | °C
As of 6:53 AM on Friday 19 Dec 2014 (Local Time) from KMIC Reporting Station
Overcast Overcast  
Wind Chill: -9°   Ceiling: 3100
Heat Index: -5°   Visibility: 7mi
Dew Point: -8°   Wind: 6mph
Humidity: 81%   Direction: 150°SSE
Pressure: 30.23"   Gusts: NA
Location:  45.0516°N, 93.2549°W
Report Text: KMIC 191253Z 15005KT 7SM OVC031 M05/M08 A3023 RMK AO2 SNB12E43 SLP252 P0000 T10501078
Loading
Personal Weather Stations






























Interactive Weather Map New forecast layout! Learn more

10-Day Weather Forecast

Advertisements
Track Severe Weather on mobile